This is the latest recevied weather packets stored in our database for station/object NW0020. If no packets are shown the sender has not sent any weather packets the latest 10 day(s).
| Time | Temp. | Humidity | Pressure | Rain* | Wind** | Luminosity | Snow |
|---|---|---|---|---|---|---|---|
| 1788158217 | 86° F | 85% | - | 0 in | - | 1297 W/m² | - |
| 1788157617 | 85° F | 86% | - | 0 in | - | 1290 W/m² | - |
| 1788157018 | 85° F | 87% | - | 0 in | - | 1263 W/m² | - |
| 1788156417 | 85° F | 87% | - | 0 in | - | 1200 W/m² | - |
| 1788155817 | 85° F | 88% | - | 0 in | - | 1246 W/m² | - |
| 1788155217 | 84° F | 89% | - | 0 in | - | 1311 W/m² | - |
| 1788154617 | 84° F | 90% | - | 0 in | - | 1349 W/m² | - |
| 1788154017 | 83° F | 91% | - | 0 in | - | 1288 W/m² | - |
| 1788153417 | 83° F | 92% | - | 0 in | - | 1176 W/m² | - |
| 1788152817 | 83° F | 93% | - | 0 in | - | 1173 W/m² | - |
| 1788152217 | 83° F | 93% | - | 0 in | - | 1173 W/m² | - |
| 1788151617 | 83° F | 94% | - | 0 in | - | 1229 W/m² | - |
| 1788151017 | 82° F | 98% | - | 0 in | - | 1277 W/m² | - |
| 1788150417 | 82° F | 99% | - | 0 in | - | 1406 W/m² | - |
| 1788149817 | 82° F | 99% | - | 0 in | - | 1247 W/m² | - |
| 1788149217 | 82° F | 99% | - | 0 in | - | 1266 W/m² | - |
| 1788148617 | 81° F | 99% | - | 0 in | - | 1289 W/m² | - |
| 1788148017 | 81° F | 99% | - | 0 in | - | 1254 W/m² | - |
| 1788147417 | 80° F | 99% | - | 0 in | - | 1196 W/m² | - |
| 1788146817 | 80° F | 99% | - | 0 in | - | 1166 W/m² | - |
| 1788146217 | 80° F | 99% | - | 0 in | - | 1166 W/m² | - |
| 1787897262 | 91° F | 63% | - | 0 in | - | 1816 W/m² | - |
| 1787896662 | 91° F | 65% | - | 0 in | - | 1834 W/m² | - |
| 1787896062 | 89° F | 68% | - | 0 in | - | 1729 W/m² | - |
| 1787895462 | 88° F | 71% | - | 0 in | - | 1605 W/m² | - |
* Rain latest hour (hover to see other rain measurements)
** Current wind speed in m/s (hover to see current wind gust speed)